Aérodrome :
LOGIN :

S'inscrire | Disclaimer

   EN    FR    IT 

 










Légende :    VFR   VFR Marginal   IFR   IFR Intensif   IFR Très Intensif
Visi : 
Plafond : 
>= 8 km
>= 3000ft
5 à 8 km
1000 à 3000 ft
1500m à 5 km
500 à 1000 ft
800 à 1500m
200 à 500 ft
< 800m
< 200 ft
Symboles :   Orages  Brouillard  Fortes neiges  Fortes précipitations  Vent > 20 kt
SIGMETs :   Divers  Orages  Givrage  Turbulence  Onde Orograph.  Cendres Volcan.






- Altitude de l'aérodrome : 461 ft
- Code IATA : WIE


ETOU - Wiesbaden Army

DERNIER METAR :
  • 301556Z AUTO 18008KT 9999 CLR 31/11 A2978 RMK AO2 SLP080 T03110109 $

METARs EXPIRÉS :
  • 301456Z AUTO 18005KT 9999 FEW075 31/12 A2980 RMK AO2 SLP087 T03100123 57014 $
  • 301356Z AUTO 10004KT 9999 SCT075 30/14 A2981 RMK AO2 SLP091 T03030140 $

TAF AMD TAF ETOU
Valide du 30 à 16h jusqu'au 01 à 18h UTC


301622Z 3016/0118 16006KT 9999 SCT060 QNH2980INS
BECMG 3017/3018 19012KT 8000 -SHRA BKN030 QNH2978INS
TEMPO 3018/3021 VRB15G25KT 6000 -TSGRRA FEW010 BKN025CB
BECMG 0101/0102 30009KT 8000 -SHRA BKN025 QNH2996INS
BECMG 0106/0107 29009KT 9999 NSW SCT030 QNH3004INS TX31/3016Z TN14/0103Z



MET'MAP, la Météo Aéronautique d'un coup d'oeil ! - Copyright ORBIFLY Décembre 2007 - Disclaimer

ORBIFLY MET'MAP TEAM :

Programmation & Développement : Alexandra Zaïnal
Sur une idée originale de : Baudouin d'Aumeries
Soutien technique & logistique : Manuel Goepfert
Assistance : Marc-Olivier Méhu




SOURCES & CREDITS :

   NOAA